C. Angelo — WCZ5866 — position and weather

sailwx.info

Track history (hours):
 
Tides and Currents Weather Stations Pressure Air Temp Water Temp Dewpoint Dewpoint Depression Visibility Wind Speed Wind Dir Waves Ship Positions

C. Angelo

Owner: G T 110 INC, NEW HAVEN, CT. More information available from US FCC via Universal Licensing System and Coast Guard Vessel Documentation Center.

Last reported at 2016-Sep-28 21:33 UTC. Time now 2016-Sep-29 06:43 UTC.
Position N 36°57' W 075°60'.

Length 30 m; draft 4 m.

Type: Tug. MMSI: 366988420.

Date/timePositionNaut miles runAvg speedWind from/ knotsBaromVisibWave heightAir tempDewpointWater temp
2016-Sep-28 21:33N 36°57' W 075°60'77 8.5
2016-Sep-28 12:33N 38°13' W 076°17'37 9.2
2016-Sep-28 08:31N 38°49' W 076°26'24 4.8
2016-Sep-28 03:33N 39°13' W 076°29'0 0.0
2016-Sep-28 02:33N 39°13' W 076°29'0 0.0
2016-Sep-28 01:33N 39°13' W 076°29'4 2.0
2016-Sep-27 23:33N 39°14' W 076°34'0 0.0
2016-Sep-27 19:33N 39°14' W 076°34'4 0.8
2016-Sep-27 14:33N 39°13' W 076°29'0 0.0
2016-Sep-27 13:33N 39°13' W 076°29'0 0.0
2016-Sep-27 10:33N 39°13' W 076°29'0 0.0
2016-Sep-27 00:33N 39°13' W 076°29'0 0.0
2016-Sep-26 20:33N 39°13' W 076°29'0 0.0
2016-Sep-26 19:33N 39°13' W 076°29'0 0.0
2016-Sep-26 15:33N 39°13' W 076°29'0 0.0
2016-Sep-26 13:33N 39°13' W 076°29'0 0.0
2016-Sep-26 11:33N 39°13' W 076°29'0 0.0
2016-Sep-26 08:33N 39°13' W 076°29'20 3.3
2016-Sep-26 02:33N 38°53' W 076°25'51 5.6
2016-Sep-25 17:29N 38°03' W 076°16'5 5.5
2016-Sep-25 16:33N 38°01' W 076°22'7 6.5
2016-Sep-25 15:33N 38°05' W 076°29'6 0.1
2016-Sep-23 16:20N 38°09' W 076°35'7 8.9
2016-Sep-23 15:30N 38°04' W 076°28'11 5.7
2016-Sep-23 13:33N 38°10' W 076°16'37 9.3
2016-Sep-23 09:33N 38°47' W 076°26'28 9.3
2016-Sep-23 06:33N 39°13' W 076°15'15 7.7
2016-Sep-23 04:33N 39°25' W 076°02'8 7.9
2016-Sep-23 03:33N 39°31' W 075°54'8 8.0
2016-Sep-23 02:33N 39°33' W 075°44'9 8.6
2016-Sep-23 01:33N 39°34' W 075°33'7 6.6
2016-Sep-23 00:33N 39°27' W 075°33'8 8.0
2016-Sep-22 23:33N 39°21' W 075°26'25 8.2
2016-Sep-22 20:33N 39°00' W 075°09'56 7.0
2016-Sep-22 12:32N 39°30' W 074°06'70 8.8
2016-Sep-22 04:33N 40°40' W 074°03'6 6.2
2016-Sep-22 03:33N 40°45' W 073°58'  
Track history (hours):
 
Tides and Currents Weather Stations Pressure Air Temp Water Temp Dewpoint Dewpoint Depression Visibility Wind Speed Wind Dir Waves Ship Positions

C. Angelo

Owner: G T 110 INC, NEW HAVEN, CT. More information available from US FCC via Universal Licensing System and Coast Guard Vessel Documentation Center.

Last reported at 2016-Sep-28 21:33 UTC. Time now 2016-Sep-29 06:43 UTC.
Position N 36°57' W 075°60'.

Length 30 m; draft 4 m.

Type: Tug. MMSI: 366988420.

Date/timePositionNaut miles runAvg speedWind from/ knotsBaromVisibWave heightAir tempDewpointWater temp
2016-Sep-28 21:33N 36°57' W 075°60'77 8.5
2016-Sep-28 12:33N 38°13' W 076°17'37 9.2
2016-Sep-28 08:31N 38°49' W 076°26'24 4.8
2016-Sep-28 03:33N 39°13' W 076°29'0 0.0
2016-Sep-28 02:33N 39°13' W 076°29'0 0.0
2016-Sep-28 01:33N 39°13' W 076°29'4 2.0
2016-Sep-27 23:33N 39°14' W 076°34'0 0.0
2016-Sep-27 19:33N 39°14' W 076°34'4 0.8
2016-Sep-27 14:33N 39°13' W 076°29'0 0.0
2016-Sep-27 13:33N 39°13' W 076°29'0 0.0
2016-Sep-27 10:33N 39°13' W 076°29'0 0.0
2016-Sep-27 00:33N 39°13' W 076°29'0 0.0
2016-Sep-26 20:33N 39°13' W 076°29'0 0.0
2016-Sep-26 19:33N 39°13' W 076°29'0 0.0
2016-Sep-26 15:33N 39°13' W 076°29'0 0.0
2016-Sep-26 13:33N 39°13' W 076°29'0 0.0
2016-Sep-26 11:33N 39°13' W 076°29'0 0.0
2016-Sep-26 08:33N 39°13' W 076°29'20 3.3
2016-Sep-26 02:33N 38°53' W 076°25'51 5.6
2016-Sep-25 17:29N 38°03' W 076°16'5 5.5
2016-Sep-25 16:33N 38°01' W 076°22'7 6.5
2016-Sep-25 15:33N 38°05' W 076°29'6 0.1
2016-Sep-23 16:20N 38°09' W 076°35'7 8.9
2016-Sep-23 15:30N 38°04' W 076°28'11 5.7
2016-Sep-23 13:33N 38°10' W 076°16'37 9.3
2016-Sep-23 09:33N 38°47' W 076°26'28 9.3
2016-Sep-23 06:33N 39°13' W 076°15'15 7.7
2016-Sep-23 04:33N 39°25' W 076°02'8 7.9
2016-Sep-23 03:33N 39°31' W 075°54'8 8.0
2016-Sep-23 02:33N 39°33' W 075°44'9 8.6
2016-Sep-23 01:33N 39°34' W 075°33'7 6.6
2016-Sep-23 00:33N 39°27' W 075°33'8 8.0
2016-Sep-22 23:33N 39°21' W 075°26'25 8.2
2016-Sep-22 20:33N 39°00' W 075°09'56 7.0
2016-Sep-22 12:32N 39°30' W 074°06'70 8.8
2016-Sep-22 04:33N 40°40' W 074°03'6 6.2
2016-Sep-22 03:33N 40°45' W 073°58'  

Dump ship's entire track history